sensor_id;sensor_type;location;lat;lon;timestamp;P1;durP1;ratioP1;P2;durP2;ratioP2
21661;SDS011;10992;48.170;8.596;2023-06-10T00:02:14;7.60;;;5.50;;
21661;SDS011;10992;48.170;8.596;2023-06-10T00:04:43;6.65;;;5.25;;
21661;SDS011;10992;48.170;8.596;2023-06-10T00:07:10;6.57;;;5.03;;
21661;SDS011;10992;48.170;8.596;2023-06-10T00:09:37;6.05;;;5.10;;
21661;SDS011;10992;48.170;8.596;2023-06-10T00:12:08;6.10;;;4.80;;
21661;SDS011;10992;48.170;8.596;2023-06-10T00:14:38;5.88;;;5.03;;
21661;SDS011;10992;48.170;8.596;2023-06-10T00:17:09;6.32;;;5.30;;
21661;SDS011;10992;48.170;8.596;2023-06-10T00:19:36;6.15;;;4.78;;
21661;SDS011;10992;48.170;8.596;2023-06-10T00:22:08;6.68;;;5.05;;
21661;SDS011;10992;48.170;8.596;2023-06-10T00:24:38;5.43;;;4.88;;
21661;SDS011;10992;48.170;8.596;2023-06-10T00:27:05;7.30;;;5.13;;
21661;SDS011;10992;48.170;8.596;2023-06-10T00:29:35;6.00;;;5.03;;
21661;SDS011;10992;48.170;8.596;2023-06-10T00:32:02;5.53;;;4.90;;
21661;SDS011;10992;48.170;8.596;2023-06-10T00:34:33;8.18;;;5.15;;
21661;SDS011;10992;48.170;8.596;2023-06-10T00:37:00;6.45;;;4.82;;
21661;SDS011;10992;48.170;8.596;2023-06-10T00:39:27;5.63;;;5.03;;
21661;SDS011;10992;48.170;8.596;2023-06-10T00:41:54;8.15;;;5.03;;
21661;SDS011;10992;48.170;8.596;2023-06-10T00:44:21;7.15;;;5.53;;
21661;SDS011;10992;48.170;8.596;2023-06-10T00:46:48;8.25;;;5.35;;
21661;SDS011;10992;48.170;8.596;2023-06-10T00:49:17;5.88;;;5.07;;
21661;SDS011;10992;48.170;8.596;2023-06-10T00:51:45;8.75;;;5.85;;
21661;SDS011;10992;48.170;8.596;2023-06-10T00:54:13;7.68;;;5.72;;
21661;SDS011;10992;48.170;8.596;2023-06-10T00:56:43;9.70;;;6.00;;
21661;SDS011;10992;48.170;8.596;2023-06-10T00:59:10;6.97;;;5.53;;
21661;SDS011;10992;48.170;8.596;2023-06-10T01:01:41;6.50;;;5.13;;
21661;SDS011;10992;48.170;8.596;2023-06-10T01:04:09;6.15;;;5.55;;
21661;SDS011;10992;48.170;8.596;2023-06-10T01:07:00;6.57;;;5.28;;
21661;SDS011;10992;48.170;8.596;2023-06-10T01:15:08;8.25;;;5.80;;
21661;SDS011;10992;48.170;8.596;2023-06-10T01:17:59;6.95;;;5.38;;
21661;SDS011;10992;48.170;8.596;2023-06-10T01:20:32;7.50;;;6.30;;
21661;SDS011;10992;48.170;8.596;2023-06-10T01:22:59;7.07;;;5.60;;
21661;SDS011;10992;48.170;8.596;2023-06-10T01:25:28;6.45;;;5.78;;
21661;SDS011;10992;48.170;8.596;2023-06-10T01:28:07;6.63;;;5.93;;
21661;SDS011;10992;48.170;8.596;2023-06-10T01:33:22;8.85;;;5.90;;
21661;SDS011;10992;48.170;8.596;2023-06-10T01:35:58;9.60;;;6.40;;
21661;SDS011;10992;48.170;8.596;2023-06-10T01:38:27;7.82;;;6.22;;
21661;SDS011;10992;48.170;8.596;2023-06-10T01:40:58;9.38;;;6.22;;
21661;SDS011;10992;48.170;8.596;2023-06-10T01:43:27;7.18;;;6.00;;
21661;SDS011;10992;48.170;8.596;2023-06-10T01:45:54;7.00;;;6.38;;
21661;SDS011;10992;48.170;8.596;2023-06-10T01:48:21;7.63;;;6.38;;
21661;SDS011;10992;48.170;8.596;2023-06-10T01:50:48;7.13;;;6.38;;
21661;SDS011;10992;48.170;8.596;2023-06-10T01:53:15;8.27;;;7.32;;
21661;SDS011;10992;48.170;8.596;2023-06-10T01:55:41;8.75;;;6.90;;
21661;SDS011;10992;48.170;8.596;2023-06-10T01:58:08;7.00;;;6.10;;
21661;SDS011;10992;48.170;8.596;2023-06-10T02:00:36;8.00;;;6.55;;
21661;SDS011;10992;48.170;8.596;2023-06-10T02:03:03;8.48;;;6.15;;
21661;SDS011;10992;48.170;8.596;2023-06-10T02:05:30;11.07;;;7.22;;
21661;SDS011;10992;48.170;8.596;2023-06-10T02:07:56;7.63;;;6.93;;
21661;SDS011;10992;48.170;8.596;2023-06-10T02:10:23;7.60;;;6.90;;
21661;SDS011;10992;48.170;8.596;2023-06-10T02:12:51;7.72;;;6.93;;
21661;SDS011;10992;48.170;8.596;2023-06-10T02:15:18;6.97;;;6.20;;
21661;SDS011;10992;48.170;8.596;2023-06-10T02:17:45;7.65;;;6.50;;
21661;SDS011;10992;48.170;8.596;2023-06-10T02:20:12;7.95;;;6.75;;
21661;SDS011;10992;48.170;8.596;2023-06-10T02:22:40;9.48;;;7.38;;
21661;SDS011;10992;48.170;8.596;2023-06-10T02:25:07;7.85;;;6.72;;
21661;SDS011;10992;48.170;8.596;2023-06-10T02:27:34;7.53;;;6.78;;
21661;SDS011;10992;48.170;8.596;2023-06-10T02:30:01;7.65;;;6.85;;
21661;SDS011;10992;48.170;8.596;2023-06-10T02:32:33;7.78;;;6.97;;
21661;SDS011;10992;48.170;8.596;2023-06-10T02:35:00;7.40;;;6.70;;
21661;SDS011;10992;48.170;8.596;2023-06-10T02:37:29;9.27;;;7.70;;
21661;SDS011;10992;48.170;8.596;2023-06-10T02:39:57;10.02;;;7.97;;
21661;SDS011;10992;48.170;8.596;2023-06-10T02:42:25;8.15;;;7.30;;
21661;SDS011;10992;48.170;8.596;2023-06-10T02:44:52;8.75;;;7.95;;
21661;SDS011;10992;48.170;8.596;2023-06-10T02:47:37;9.40;;;7.75;;
21661;SDS011;10992;48.170;8.596;2023-06-10T02:50:06;9.60;;;8.25;;
21661;SDS011;10992;48.170;8.596;2023-06-10T02:52:39;8.90;;;8.10;;
21661;SDS011;10992;48.170;8.596;2023-06-10T02:55:06;8.85;;;7.95;;
21661;SDS011;10992;48.170;8.596;2023-06-10T02:57:35;9.18;;;7.85;;
21661;SDS011;10992;48.170;8.596;2023-06-10T03:00:03;11.90;;;8.50;;
21661;SDS011;10992;48.170;8.596;2023-06-10T03:02:37;9.10;;;8.20;;
21661;SDS011;10992;48.170;8.596;2023-06-10T03:05:07;9.32;;;8.40;;
21661;SDS011;10992;48.170;8.596;2023-06-10T03:07:39;8.73;;;7.80;;
21661;SDS011;10992;48.170;8.596;2023-06-10T03:10:07;9.88;;;8.85;;
21661;SDS011;10992;48.170;8.596;2023-06-10T03:12:36;10.73;;;9.65;;
21661;SDS011;10992;48.170;8.596;2023-06-10T03:15:03;11.18;;;8.63;;
21661;SDS011;10992;48.170;8.596;2023-06-10T03:17:31;11.57;;;8.70;;
21661;SDS011;10992;48.170;8.596;2023-06-10T03:19:58;9.80;;;8.85;;
21661;SDS011;10992;48.170;8.596;2023-06-10T03:22:26;10.10;;;9.00;;
21661;SDS011;10992;48.170;8.596;2023-06-10T03:25:00;10.63;;;9.57;;
21661;SDS011;10992;48.170;8.596;2023-06-10T03:27:27;11.00;;;8.15;;
21661;SDS011;10992;48.170;8.596;2023-06-10T03:29:58;11.10;;;9.90;;
21661;SDS011;10992;48.170;8.596;2023-06-10T03:32:26;10.48;;;8.63;;
21661;SDS011;10992;48.170;8.596;2023-06-10T03:34:54;10.75;;;8.70;;
21661;SDS011;10992;48.170;8.596;2023-06-10T03:37:25;10.95;;;9.63;;
21661;SDS011;10992;48.170;8.596;2023-06-10T03:39:53;10.10;;;8.57;;
21661;SDS011;10992;48.170;8.596;2023-06-10T03:42:19;9.52;;;8.52;;
21661;SDS011;10992;48.170;8.596;2023-06-10T03:44:47;10.25;;;8.48;;
21661;SDS011;10992;48.170;8.596;2023-06-10T03:47:13;9.20;;;8.30;;
21661;SDS011;10992;48.170;8.596;2023-06-10T03:49:40;8.88;;;7.93;;
21661;SDS011;10992;48.170;8.596;2023-06-10T03:52:08;9.35;;;8.35;;
21661;SDS011;10992;48.170;8.596;2023-06-10T03:54:36;9.75;;;7.50;;
21661;SDS011;10992;48.170;8.596;2023-06-10T03:57:03;9.38;;;8.38;;
21661;SDS011;10992;48.170;8.596;2023-06-10T03:59:32;7.97;;;6.95;;
21661;SDS011;10992;48.170;8.596;2023-06-10T04:01:58;10.77;;;7.95;;
21661;SDS011;10992;48.170;8.596;2023-06-10T04:04:26;9.70;;;8.02;;
21661;SDS011;10992;48.170;8.596;2023-06-10T04:06:53;9.60;;;8.43;;
21661;SDS011;10992;48.170;8.596;2023-06-10T04:09:21;9.30;;;8.35;;
21661;SDS011;10992;48.170;8.596;2023-06-10T04:11:48;9.10;;;8.20;;
21661;SDS011;10992;48.170;8.596;2023-06-10T04:14:15;8.95;;;8.15;;
21661;SDS011;10992;48.170;8.596;2023-06-10T04:16:43;9.20;;;7.10;;
21661;SDS011;10992;48.170;8.596;2023-06-10T04:19:11;9.60;;;7.95;;
21661;SDS011;10992;48.170;8.596;2023-06-10T04:21:38;9.00;;;7.82;;
21661;SDS011;10992;48.170;8.596;2023-06-10T04:24:05;8.25;;;7.25;;
21661;SDS011;10992;48.170;8.596;2023-06-10T04:26:34;8.18;;;7.38;;
21661;SDS011;10992;48.170;8.596;2023-06-10T04:29:02;8.43;;;7.35;;
21661;SDS011;10992;48.170;8.596;2023-06-10T04:31:30;9.57;;;7.57;;
21661;SDS011;10992;48.170;8.596;2023-06-10T04:33:59;8.65;;;7.75;;
21661;SDS011;10992;48.170;8.596;2023-06-10T04:36:28;7.70;;;6.90;;
21661;SDS011;10992;48.170;8.596;2023-06-10T04:38:56;9.60;;;7.32;;
21661;SDS011;10992;48.170;8.596;2023-06-10T04:41:23;7.78;;;7.03;;
21661;SDS011;10992;48.170;8.596;2023-06-10T04:43:51;11.05;;;7.50;;
21661;SDS011;10992;48.170;8.596;2023-06-10T04:46:19;8.00;;;7.20;;
21661;SDS011;10992;48.170;8.596;2023-06-10T04:48:47;7.57;;;6.53;;
21661;SDS011;10992;48.170;8.596;2023-06-10T04:51:14;7.68;;;6.90;;
21661;SDS011;10992;48.170;8.596;2023-06-10T04:53:41;9.05;;;7.57;;
21661;SDS011;10992;48.170;8.596;2023-06-10T04:56:08;7.30;;;6.57;;
21661;SDS011;10992;48.170;8.596;2023-06-10T04:58:35;7.60;;;6.80;;
21661;SDS011;10992;48.170;8.596;2023-06-10T05:01:02;6.93;;;5.97;;
21661;SDS011;10992;48.170;8.596;2023-06-10T05:03:29;7.00;;;6.30;;
21661;SDS011;10992;48.170;8.596;2023-06-10T05:05:56;6.55;;;5.95;;
21661;SDS011;10992;48.170;8.596;2023-06-10T05:08:23;6.68;;;5.93;;
21661;SDS011;10992;48.170;8.596;2023-06-10T05:10:50;6.28;;;5.68;;
21661;SDS011;10992;48.170;8.596;2023-06-10T05:13:17;6.95;;;5.35;;
21661;SDS011;10992;48.170;8.596;2023-06-10T05:15:44;7.68;;;5.72;;
21661;SDS011;10992;48.170;8.596;2023-06-10T05:18:12;6.35;;;5.50;;
21661;SDS011;10992;48.170;8.596;2023-06-10T05:20:39;7.13;;;5.50;;
21661;SDS011;10992;48.170;8.596;2023-06-10T05:23:06;6.45;;;5.00;;
21661;SDS011;10992;48.170;8.596;2023-06-10T05:25:33;5.75;;;4.93;;
21661;SDS011;10992;48.170;8.596;2023-06-10T05:28:00;5.78;;;5.07;;
21661;SDS011;10992;48.170;8.596;2023-06-10T05:30:27;5.78;;;5.20;;
21661;SDS011;10992;48.170;8.596;2023-06-10T05:32:54;8.02;;;5.40;;
21661;SDS011;10992;48.170;8.596;2023-06-10T05:35:22;7.10;;;5.60;;
21661;SDS011;10992;48.170;8.596;2023-06-10T05:37:49;5.78;;;5.28;;
21661;SDS011;10992;48.170;8.596;2023-06-10T05:40:16;9.05;;;5.45;;
21661;SDS011;10992;48.170;8.596;2023-06-10T05:42:43;8.48;;;5.55;;
21661;SDS011;10992;48.170;8.596;2023-06-10T05:45:10;6.15;;;5.55;;
21661;SDS011;10992;48.170;8.596;2023-06-10T05:47:37;6.03;;;5.35;;
21661;SDS011;10992;48.170;8.596;2023-06-10T05:50:04;6.78;;;5.22;;
21661;SDS011;10992;48.170;8.596;2023-06-10T05:52:35;8.63;;;6.07;;
21661;SDS011;10992;48.170;8.596;2023-06-10T05:55:03;6.15;;;5.47;;
21661;SDS011;10992;48.170;8.596;2023-06-10T05:57:30;6.53;;;5.30;;
21661;SDS011;10992;48.170;8.596;2023-06-10T05:59:58;6.88;;;5.50;;
21661;SDS011;10992;48.170;8.596;2023-06-10T06:02:25;6.88;;;5.50;;
21661;SDS011;10992;48.170;8.596;2023-06-10T06:04:52;6.25;;;5.65;;
21661;SDS011;10992;48.170;8.596;2023-06-10T06:07:19;6.82;;;5.97;;
21661;SDS011;10992;48.170;8.596;2023-06-10T06:09:47;7.22;;;5.63;;
21661;SDS011;10992;48.170;8.596;2023-06-10T06:12:14;7.05;;;5.80;;
21661;SDS011;10992;48.170;8.596;2023-06-10T06:14:41;7.85;;;5.10;;
21661;SDS011;10992;48.170;8.596;2023-06-10T06:17:09;7.43;;;5.30;;
21661;SDS011;10992;48.170;8.596;2023-06-10T06:19:36;7.50;;;5.00;;
21661;SDS011;10992;48.170;8.596;2023-06-10T06:22:03;5.40;;;4.50;;
21661;SDS011;10992;48.170;8.596;2023-06-10T06:24:30;6.13;;;5.20;;
21661;SDS011;10992;48.170;8.596;2023-06-10T06:26:57;7.50;;;5.63;;
21661;SDS011;10992;48.170;8.596;2023-06-10T06:29:24;6.13;;;5.05;;
21661;SDS011;10992;48.170;8.596;2023-06-10T06:31:51;6.20;;;5.40;;
21661;SDS011;10992;48.170;8.596;2023-06-10T06:34:18;6.05;;;5.45;;
21661;SDS011;10992;48.170;8.596;2023-06-10T06:36:45;6.93;;;5.00;;
21661;SDS011;10992;48.170;8.596;2023-06-10T06:39:13;5.63;;;5.03;;
21661;SDS011;10992;48.170;8.596;2023-06-10T06:41:41;7.28;;;5.45;;
21661;SDS011;10992;48.170;8.596;2023-06-10T06:44:08;5.82;;;5.22;;
21661;SDS011;10992;48.170;8.596;2023-06-10T06:46:42;6.65;;;5.55;;
21661;SDS011;10992;48.170;8.596;2023-06-10T06:49:09;6.00;;;5.40;;
21661;SDS011;10992;48.170;8.596;2023-06-10T06:51:36;5.88;;;4.97;;
21661;SDS011;10992;48.170;8.596;2023-06-10T06:54:03;6.25;;;5.32;;
21661;SDS011;10992;48.170;8.596;2023-06-10T06:56:31;5.45;;;4.82;;
21661;SDS011;10992;48.170;8.596;2023-06-10T06:58:58;9.73;;;5.00;;
21661;SDS011;10992;48.170;8.596;2023-06-10T07:01:25;5.30;;;4.80;;
21661;SDS011;10992;48.170;8.596;2023-06-10T07:03:52;4.78;;;4.30;;
21661;SDS011;10992;48.170;8.596;2023-06-10T07:06:19;5.80;;;5.00;;
21661;SDS011;10992;48.170;8.596;2023-06-10T07:08:46;5.05;;;4.47;;
21661;SDS011;10992;48.170;8.596;2023-06-10T07:11:15;5.20;;;4.65;;
21661;SDS011;10992;48.170;8.596;2023-06-10T07:13:43;5.07;;;4.57;;
21661;SDS011;10992;48.170;8.596;2023-06-10T07:16:10;5.30;;;4.80;;
21661;SDS011;10992;48.170;8.596;2023-06-10T07:18:38;5.82;;;4.45;;
21661;SDS011;10992;48.170;8.596;2023-06-10T07:21:04;6.97;;;4.60;;
21661;SDS011;10992;48.170;8.596;2023-06-10T07:23:31;5.28;;;4.78;;
21661;SDS011;10992;48.170;8.596;2023-06-10T07:25:58;5.65;;;5.15;;
21661;SDS011;10992;48.170;8.596;2023-06-10T07:28:25;5.55;;;4.85;;
21661;SDS011;10992;48.170;8.596;2023-06-10T07:30:53;6.80;;;5.07;;
21661;SDS011;10992;48.170;8.596;2023-06-10T07:33:19;5.32;;;4.82;;
21661;SDS011;10992;48.170;8.596;2023-06-10T07:35:46;5.97;;;5.05;;
21661;SDS011;10992;48.170;8.596;2023-06-10T07:38:13;8.60;;;4.65;;
21661;SDS011;10992;48.170;8.596;2023-06-10T07:40:40;5.07;;;4.57;;
21661;SDS011;10992;48.170;8.596;2023-06-10T07:43:07;6.57;;;5.10;;
21661;SDS011;10992;48.170;8.596;2023-06-10T07:45:34;5.60;;;5.10;;
21661;SDS011;10992;48.170;8.596;2023-06-10T07:48:01;5.10;;;4.60;;
21661;SDS011;10992;48.170;8.596;2023-06-10T07:50:27;4.78;;;4.20;;
21661;SDS011;10992;48.170;8.596;2023-06-10T07:52:54;5.97;;;4.07;;
21661;SDS011;10992;48.170;8.596;2023-06-10T07:55:21;5.75;;;4.40;;
21661;SDS011;10992;48.170;8.596;2023-06-10T07:57:48;5.05;;;4.55;;
21661;SDS011;10992;48.170;8.596;2023-06-10T08:00:15;5.50;;;4.63;;
21661;SDS011;10992;48.170;8.596;2023-06-10T08:02:43;4.82;;;4.32;;
21661;SDS011;10992;48.170;8.596;2023-06-10T08:05:10;5.88;;;4.43;;
21661;SDS011;10992;48.170;8.596;2023-06-10T08:07:38;6.80;;;4.57;;
21661;SDS011;10992;48.170;8.596;2023-06-10T08:10:06;5.07;;;3.97;;
21661;SDS011;10992;48.170;8.596;2023-06-10T08:12:34;5.22;;;4.47;;
21661;SDS011;10992;48.170;8.596;2023-06-10T08:15:02;5.18;;;4.50;;
21661;SDS011;10992;48.170;8.596;2023-06-10T08:17:30;4.82;;;4.32;;
21661;SDS011;10992;48.170;8.596;2023-06-10T08:19:57;6.60;;;4.47;;
21661;SDS011;10992;48.170;8.596;2023-06-10T08:22:24;4.57;;;4.18;;
21661;SDS011;10992;48.170;8.596;2023-06-10T08:24:51;5.18;;;4.68;;
21661;SDS011;10992;48.170;8.596;2023-06-10T08:27:18;5.00;;;4.53;;
21661;SDS011;10992;48.170;8.596;2023-06-10T08:29:45;5.35;;;4.85;;
21661;SDS011;10992;48.170;8.596;2023-06-10T08:32:12;5.60;;;4.40;;
21661;SDS011;10992;48.170;8.596;2023-06-10T08:34:39;5.28;;;4.65;;
21661;SDS011;10992;48.170;8.596;2023-06-10T08:37:07;5.03;;;4.53;;
21661;SDS011;10992;48.170;8.596;2023-06-10T08:39:34;4.93;;;4.53;;
21661;SDS011;10992;48.170;8.596;2023-06-10T08:44:51;5.05;;;4.30;;
21661;SDS011;10992;48.170;8.596;2023-06-10T08:47:22;5.95;;;4.55;;
21661;SDS011;10992;48.170;8.596;2023-06-10T08:49:51;6.05;;;4.55;;
21661;SDS011;10992;48.170;8.596;2023-06-10T08:52:23;7.07;;;4.90;;
21661;SDS011;10992;48.170;8.596;2023-06-10T08:55:03;4.90;;;4.30;;
21661;SDS011;10992;48.170;8.596;2023-06-10T08:57:35;5.70;;;4.43;;
21661;SDS011;10992;48.170;8.596;2023-06-10T09:00:03;5.22;;;4.70;;
21661;SDS011;10992;48.170;8.596;2023-06-10T09:02:31;5.57;;;4.45;;
21661;SDS011;10992;48.170;8.596;2023-06-10T09:05:02;5.45;;;4.28;;
21661;SDS011;10992;48.170;8.596;2023-06-10T09:07:30;6.60;;;5.07;;
21661;SDS011;10992;48.170;8.596;2023-06-10T09:10:03;6.53;;;4.70;;
21661;SDS011;10992;48.170;8.596;2023-06-10T09:12:34;6.45;;;5.70;;
21661;SDS011;10992;48.170;8.596;2023-06-10T09:15:01;6.40;;;4.75;;
21661;SDS011;10992;48.170;8.596;2023-06-10T09:17:29;5.45;;;4.40;;
21661;SDS011;10992;48.170;8.596;2023-06-10T09:19:56;5.45;;;4.32;;
21661;SDS011;10992;48.170;8.596;2023-06-10T09:22:23;6.00;;;4.95;;
21661;SDS011;10992;48.170;8.596;2023-06-10T09:25:10;5.60;;;5.10;;
21661;SDS011;10992;48.170;8.596;2023-06-10T09:30:27;6.00;;;5.40;;
21661;SDS011;10992;48.170;8.596;2023-06-10T09:33:01;6.20;;;5.35;;
21661;SDS011;10992;48.170;8.596;2023-06-10T09:35:35;6.78;;;5.10;;
21661;SDS011;10992;48.170;8.596;2023-06-10T09:38:02;8.45;;;4.63;;
21661;SDS011;10992;48.170;8.596;2023-06-10T09:40:29;6.60;;;5.07;;
21661;SDS011;10992;48.170;8.596;2023-06-10T09:42:58;5.60;;;4.40;;
21661;SDS011;10992;48.170;8.596;2023-06-10T09:45:30;6.03;;;4.85;;
21661;SDS011;10992;48.170;8.596;2023-06-10T09:48:00;6.20;;;4.47;;
21661;SDS011;10992;48.170;8.596;2023-06-10T09:50:49;5.50;;;5.00;;
21661;SDS011;10992;48.170;8.596;2023-06-10T09:53:14;6.60;;;5.50;;
21661;SDS011;10992;48.170;8.596;2023-06-10T09:55:44;5.75;;;5.15;;
21661;SDS011;10992;48.170;8.596;2023-06-10T09:58:11;7.35;;;5.30;;
21661;SDS011;10992;48.170;8.596;2023-06-10T10:00:38;5.72;;;4.82;;
21661;SDS011;10992;48.170;8.596;2023-06-10T10:03:04;5.82;;;4.68;;
21661;SDS011;10992;48.170;8.596;2023-06-10T10:05:33;5.25;;;4.63;;
21661;SDS011;10992;48.170;8.596;2023-06-10T10:08:00;5.55;;;4.60;;
21661;SDS011;10992;48.170;8.596;2023-06-10T10:10:27;5.30;;;4.80;;
21661;SDS011;10992;48.170;8.596;2023-06-10T10:12:56;6.95;;;4.05;;
21661;SDS011;10992;48.170;8.596;2023-06-10T10:15:25;5.07;;;4.57;;
21661;SDS011;10992;48.170;8.596;2023-06-10T10:17:58;6.85;;;4.43;;
21661;SDS011;10992;48.170;8.596;2023-06-10T10:20:31;5.22;;;4.53;;
21661;SDS011;10992;48.170;8.596;2023-06-10T10:23:01;5.93;;;4.78;;
21661;SDS011;10992;48.170;8.596;2023-06-10T10:25:32;6.28;;;4.32;;
21661;SDS011;10992;48.170;8.596;2023-06-10T10:28:06;5.25;;;4.65;;
21661;SDS011;10992;48.170;8.596;2023-06-10T10:30:49;5.53;;;5.03;;
21661;SDS011;10992;48.170;8.596;2023-06-10T10:33:19;5.82;;;5.13;;
21661;SDS011;10992;48.170;8.596;2023-06-10T10:35:50;5.13;;;4.63;;
21661;SDS011;10992;48.170;8.596;2023-06-10T10:38:17;5.68;;;5.07;;
21661;SDS011;10992;48.170;8.596;2023-06-10T10:40:44;5.45;;;4.75;;
21661;SDS011;10992;48.170;8.596;2023-06-10T10:43:13;5.05;;;4.55;;
21661;SDS011;10992;48.170;8.596;2023-06-10T10:45:41;5.45;;;4.95;;
21661;SDS011;10992;48.170;8.596;2023-06-10T10:48:08;4.97;;;4.40;;
21661;SDS011;10992;48.170;8.596;2023-06-10T10:50:38;6.70;;;5.15;;
21661;SDS011;10992;48.170;8.596;2023-06-10T10:53:06;4.75;;;4.03;;
21661;SDS011;10992;48.170;8.596;2023-06-10T10:55:34;6.47;;;4.88;;
21661;SDS011;10992;48.170;8.596;2023-06-10T10:58:04;5.03;;;4.32;;
21661;SDS011;10992;48.170;8.596;2023-06-10T11:00:33;6.20;;;5.03;;
21661;SDS011;10992;48.170;8.596;2023-06-10T11:03:07;5.47;;;4.25;;
21661;SDS011;10992;48.170;8.596;2023-06-10T11:05:39;5.32;;;4.30;;
21661;SDS011;10992;48.170;8.596;2023-06-10T11:08:14;4.60;;;4.20;;
21661;SDS011;10992;48.170;8.596;2023-06-10T11:11:17;4.72;;;4.32;;
21661;SDS011;10992;48.170;8.596;2023-06-10T11:16:31;4.97;;;4.10;;
21661;SDS011;10992;48.170;8.596;2023-06-10T11:19:06;4.05;;;3.67;;
21661;SDS011;10992;48.170;8.596;2023-06-10T11:21:37;4.40;;;3.70;;
21661;SDS011;10992;48.170;8.596;2023-06-10T11:24:23;4.50;;;4.10;;
21661;SDS011;10992;48.170;8.596;2023-06-10T11:26:50;4.25;;;3.50;;
21661;SDS011;10992;48.170;8.596;2023-06-10T11:29:17;3.97;;;3.63;;
21661;SDS011;10992;48.170;8.596;2023-06-10T11:31:45;3.63;;;3.33;;
21661;SDS011;10992;48.170;8.596;2023-06-10T11:34:21;3.40;;;2.67;;
21661;SDS011;10992;48.170;8.596;2023-06-10T11:36:50;3.17;;;2.88;;
21661;SDS011;10992;48.170;8.596;2023-06-10T11:39:19;3.60;;;3.30;;
21661;SDS011;10992;48.170;8.596;2023-06-10T11:41:46;3.60;;;3.03;;
21661;SDS011;10992;48.170;8.596;2023-06-10T11:44:14;3.75;;;3.28;;
21661;SDS011;10992;48.170;8.596;2023-06-10T11:46:47;4.35;;;3.65;;
21661;SDS011;10992;48.170;8.596;2023-06-10T11:49:14;3.45;;;3.03;;
21661;SDS011;10992;48.170;8.596;2023-06-10T11:51:41;3.00;;;2.70;;
21661;SDS011;10992;48.170;8.596;2023-06-10T11:54:16;4.07;;;3.03;;
21661;SDS011;10992;48.170;8.596;2023-06-10T11:56:43;3.80;;;2.20;;
21661;SDS011;10992;48.170;8.596;2023-06-10T11:59:11;2.80;;;2.60;;
21661;SDS011;10992;48.170;8.596;2023-06-10T12:01:42;3.10;;;2.80;;
21661;SDS011;10992;48.170;8.596;2023-06-10T12:04:13;4.25;;;3.10;;
21661;SDS011;10992;48.170;8.596;2023-06-10T12:06:53;3.10;;;2.80;;
21661;SDS011;10992;48.170;8.596;2023-06-10T12:11:54;5.15;;;3.00;;
21661;SDS011;10992;48.170;8.596;2023-06-10T12:20:00;2.95;;;2.55;;
21661;SDS011;10992;48.170;8.596;2023-06-10T12:22:35;3.05;;;2.75;;
21661;SDS011;10992;48.170;8.596;2023-06-10T12:25:03;3.10;;;2.80;;
21661;SDS011;10992;48.170;8.596;2023-06-10T12:27:34;3.95;;;2.90;;
21661;SDS011;10992;48.170;8.596;2023-06-10T12:30:03;4.53;;;2.85;;
21661;SDS011;10992;48.170;8.596;2023-06-10T12:35:09;2.90;;;2.40;;
21661;SDS011;10992;48.170;8.596;2023-06-10T12:37:40;4.40;;;2.20;;
21661;SDS011;10992;48.170;8.596;2023-06-10T12:40:09;3.40;;;2.40;;
21661;SDS011;10992;48.170;8.596;2023-06-10T12:42:37;2.83;;;2.50;;
21661;SDS011;10992;48.170;8.596;2023-06-10T12:45:04;3.28;;;2.30;;
21661;SDS011;10992;48.170;8.596;2023-06-10T12:47:36;2.45;;;2.13;;
21661;SDS011;10992;48.170;8.596;2023-06-10T12:50:07;2.40;;;2.20;;
21661;SDS011;10992;48.170;8.596;2023-06-10T12:52:35;2.88;;;2.08;;
21661;SDS011;10992;48.170;8.596;2023-06-10T12:55:02;2.15;;;1.92;;
21661;SDS011;10992;48.170;8.596;2023-06-10T12:57:30;2.42;;;2.22;;
21661;SDS011;10992;48.170;8.596;2023-06-10T12:59:57;3.15;;;2.50;;
21661;SDS011;10992;48.170;8.596;2023-06-10T13:02:30;2.33;;;2.13;;
21661;SDS011;10992;48.170;8.596;2023-06-10T13:04:58;2.85;;;2.47;;
21661;SDS011;10992;48.170;8.596;2023-06-10T13:07:25;4.78;;;2.95;;
21661;SDS011;10992;48.170;8.596;2023-06-10T13:09:52;3.05;;;2.30;;
21661;SDS011;10992;48.170;8.596;2023-06-10T13:12:19;3.30;;;2.78;;
21661;SDS011;10992;48.170;8.596;2023-06-10T13:15:03;4.38;;;2.67;;
21661;SDS011;10992;48.170;8.596;2023-06-10T13:17:31;2.60;;;2.40;;
21661;SDS011;10992;48.170;8.596;2023-06-10T13:20:00;2.30;;;2.10;;
21661;SDS011;10992;48.170;8.596;2023-06-10T13:22:29;3.30;;;2.65;;
21661;SDS011;10992;48.170;8.596;2023-06-10T13:24:56;3.45;;;2.45;;
21661;SDS011;10992;48.170;8.596;2023-06-10T13:27:23;3.63;;;2.58;;
21661;SDS011;10992;48.170;8.596;2023-06-10T13:29:50;2.60;;;2.40;;
21661;SDS011;10992;48.170;8.596;2023-06-10T13:32:17;2.88;;;2.50;;
21661;SDS011;10992;48.170;8.596;2023-06-10T13:34:44;3.00;;;2.60;;
21661;SDS011;10992;48.170;8.596;2023-06-10T13:37:12;3.38;;;2.40;;
21661;SDS011;10992;48.170;8.596;2023-06-10T13:39:39;2.83;;;2.40;;
21661;SDS011;10992;48.170;8.596;2023-06-10T13:42:06;4.43;;;2.35;;
21661;SDS011;10992;48.170;8.596;2023-06-10T13:44:34;3.00;;;2.70;;
21661;SDS011;10992;48.170;8.596;2023-06-10T13:47:02;3.63;;;2.60;;
21661;SDS011;10992;48.170;8.596;2023-06-10T13:49:30;4.05;;;2.55;;
21661;SDS011;10992;48.170;8.596;2023-06-10T13:51:57;2.70;;;2.30;;
21661;SDS011;10992;48.170;8.596;2023-06-10T13:54:24;2.58;;;2.35;;
21661;SDS011;10992;48.170;8.596;2023-06-10T13:56:51;4.82;;;2.60;;
21661;SDS011;10992;48.170;8.596;2023-06-10T13:59:18;2.83;;;2.42;;
21661;SDS011;10992;48.170;8.596;2023-06-10T14:01:46;3.22;;;2.33;;
21661;SDS011;10992;48.170;8.596;2023-06-10T14:04:13;2.63;;;2.30;;
21661;SDS011;10992;48.170;8.596;2023-06-10T14:06:40;3.60;;;2.72;;
21661;SDS011;10992;48.170;8.596;2023-06-10T14:09:07;2.60;;;2.40;;
21661;SDS011;10992;48.170;8.596;2023-06-10T14:11:34;3.65;;;2.17;;
21661;SDS011;10992;48.170;8.596;2023-06-10T14:14:01;4.43;;;2.70;;
21661;SDS011;10992;48.170;8.596;2023-06-10T14:16:27;2.78;;;2.58;;
21661;SDS011;10992;48.170;8.596;2023-06-10T14:18:55;4.20;;;2.60;;
21661;SDS011;10992;48.170;8.596;2023-06-10T14:21:22;3.30;;;2.53;;
21661;SDS011;10992;48.170;8.596;2023-06-10T14:23:49;3.53;;;2.75;;
21661;SDS011;10992;48.170;8.596;2023-06-10T14:26:18;3.22;;;2.92;;
21661;SDS011;10992;48.170;8.596;2023-06-10T14:28:48;3.13;;;2.90;;
21661;SDS011;10992;48.170;8.596;2023-06-10T14:31:16;4.80;;;3.10;;
21661;SDS011;10992;48.170;8.596;2023-06-10T14:33:43;3.28;;;2.97;;
21661;SDS011;10992;48.170;8.596;2023-06-10T14:36:10;5.28;;;4.10;;
21661;SDS011;10992;48.170;8.596;2023-06-10T14:38:37;3.80;;;3.38;;
21661;SDS011;10992;48.170;8.596;2023-06-10T14:41:04;3.10;;;2.80;;
21661;SDS011;10992;48.170;8.596;2023-06-10T14:43:31;4.35;;;3.22;;
21661;SDS011;10992;48.170;8.596;2023-06-10T14:45:58;3.75;;;3.13;;
21661;SDS011;10992;48.170;8.596;2023-06-10T14:48:25;4.32;;;3.30;;
21661;SDS011;10992;48.170;8.596;2023-06-10T14:50:51;3.00;;;2.75;;
21661;SDS011;10992;48.170;8.596;2023-06-10T14:53:21;3.75;;;3.28;;
21661;SDS011;10992;48.170;8.596;2023-06-10T14:55:48;3.92;;;3.20;;
21661;SDS011;10992;48.170;8.596;2023-06-10T14:58:15;3.58;;;3.05;;
21661;SDS011;10992;48.170;8.596;2023-06-10T15:00:42;4.00;;;3.13;;
21661;SDS011;10992;48.170;8.596;2023-06-10T15:03:09;4.20;;;2.85;;
21661;SDS011;10992;48.170;8.596;2023-06-10T15:05:36;2.80;;;2.60;;
21661;SDS011;10992;48.170;8.596;2023-06-10T15:08:04;5.03;;;2.90;;
21661;SDS011;10992;48.170;8.596;2023-06-10T15:10:31;3.10;;;2.78;;
21661;SDS011;10992;48.170;8.596;2023-06-10T15:12:58;3.15;;;2.85;;
21661;SDS011;10992;48.170;8.596;2023-06-10T15:15:25;3.20;;;2.83;;
21661;SDS011;10992;48.170;8.596;2023-06-10T15:17:53;4.15;;;3.10;;
21661;SDS011;10992;48.170;8.596;2023-06-10T15:20:20;3.22;;;2.90;;
21661;SDS011;10992;48.170;8.596;2023-06-10T15:22:47;2.95;;;2.65;;
21661;SDS011;10992;48.170;8.596;2023-06-10T15:25:14;3.72;;;3.10;;